Isle of Canna, United Kingdom
Current Conditions -  °F | °C
As of 9:20 AM on Sunday 26 Oct 2014 (Local Time) from EGPU Reporting Station
Light Rain Light Rain  
Wind Chill: 54°   Ceiling: 2500
Heat Index: 54°   Visibility: 4mi
Dew Point: 50°   Wind: 33mph
Humidity: 88%   Direction: 230°SW
Pressure: 29.5"   Gusts: 48mph
Location:  57.06°N, 6.5°W
Report Text: EGPU 260820Z AUTO 23029G42KT 190V250 6000 -RA SCT021/// BKN025/// 12/10 Q0999
Loading
Personal Weather Stations






























Interactive Weather Map
Tropical Storm Tracking
New forecast layout! Learn more

10-Day Weather Forecast

Advertisements
Track Severe Weather on mobile